createdAt,value
2022-10-20T00:00:50.353Z,101184.84
2022-10-20T00:03:16.769Z,101177.44
2022-10-20T00:05:43.234Z,101173.59
2022-10-20T00:08:09.644Z,101170.34
2022-10-20T00:10:36.069Z,101175.91
2022-10-20T00:13:03.033Z,101165.09
2022-10-20T00:15:29.671Z,101163.41
2022-10-20T00:17:56.088Z,101159.41
2022-10-20T00:20:22.554Z,101154.47
2022-10-20T00:22:49.137Z,101158.34
2022-10-20T00:25:15.819Z,101158.34
2022-10-20T00:27:42.345Z,101166.28
2022-10-20T00:30:08.993Z,101166.50
2022-10-20T00:32:35.518Z,101163.13
2022-10-20T00:35:02.104Z,101164.19
2022-10-20T00:37:28.477Z,101150.34
2022-10-20T00:39:54.918Z,101144.81
2022-10-20T00:42:21.316Z,101144.88
2022-10-20T00:44:59.805Z,101143.41
2022-10-20T00:47:39.202Z,101149.19
2022-10-20T00:50:19.829Z,101139.09
2022-10-20T00:52:47.297Z,101139.56
2022-10-20T00:55:19.442Z,101139.09
2022-10-20T00:57:49.324Z,101146.63
2022-10-20T01:00:16.300Z,101135.38
2022-10-20T01:02:43.897Z,101129.47
2022-10-20T01:05:10.369Z,101131.00
2022-10-20T01:07:37.041Z,101134.69
2022-10-20T01:10:05.408Z,101120.25
2022-10-20T01:13:07.738Z,101120.28
2022-10-20T01:16:03.627Z,101105.06
2022-10-20T01:18:53.721Z,101109.34
2022-10-20T01:21:48.095Z,101101.34
2022-10-20T01:24:17.374Z,101103.50
2022-10-20T01:30:04.246Z,101119.72
2022-10-20T01:32:55.266Z,101100.22
2022-10-20T01:35:46.573Z,101098.97
2022-10-20T01:38:22.079Z,101090.06
2022-10-20T01:40:54.345Z,101083.28
2022-10-20T01:43:23.652Z,101089.25
2022-10-20T01:45:52.648Z,101086.75
2022-10-20T01:48:22.723Z,101098.44
2022-10-20T01:50:50.738Z,101093.38
2022-10-20T01:53:17.359Z,101084.44
2022-10-20T01:55:43.893Z,101089.09
2022-10-20T01:58:39.979Z,101082.13
2022-10-20T02:01:20.560Z,101076.19
2022-10-20T02:03:54.791Z,101062.38
2022-10-20T02:06:31.980Z,101057.91
2022-10-20T02:09:06.953Z,101049.69
2022-10-20T02:11:48.293Z,101031.41
2022-10-20T02:14:17.165Z,101030.59
2022-10-20T02:16:48.439Z,101033.78
2022-10-20T02:19:18.834Z,101044.81
2022-10-20T02:21:46.591Z,101042.31
2022-10-20T02:24:16.019Z,101035.94
2022-10-20T02:26:44.280Z,101024.88
2022-10-20T02:29:15.161Z,101038.69
2022-10-20T02:31:43.053Z,101044.88
2022-10-20T02:34:09.696Z,101039.81
2022-10-20T02:36:39.947Z,101044.72
2022-10-20T02:39:07.440Z,101039.88
2022-10-20T02:41:34.048Z,101038.38
2022-10-20T02:44:00.724Z,101039.47
2022-10-20T02:46:27.148Z,101038.22
2022-10-20T02:48:53.875Z,101043.75
2022-10-20T02:51:20.440Z,101033.56
2022-10-20T02:53:46.816Z,101024.66
2022-10-20T02:56:13.266Z,101022.75
2022-10-20T02:58:39.658Z,101024.66
2022-10-20T03:01:06.133Z,101008.56
2022-10-20T03:03:32.570Z,101018.53
2022-10-20T03:05:59.022Z,101006.84
2022-10-20T03:08:25.613Z,101012.38
2022-10-20T03:10:52.044Z,101009.41
2022-10-20T03:13:18.453Z,100999.19
2022-10-20T03:15:44.924Z,101005.78
2022-10-20T03:18:11.280Z,101003.88
2022-10-20T03:20:37.797Z,100995.34
2022-10-20T03:23:04.210Z,100993.44
2022-10-20T03:25:31.823Z,100999.19
2022-10-20T03:27:58.656Z,101004.72
2022-10-20T03:30:25.096Z,101004.09
2022-10-20T03:32:51.485Z,100991.13
2022-10-20T03:35:17.956Z,100991.78
2022-10-20T03:37:44.343Z,100996.47
2022-10-20T03:40:10.893Z,100985.03
2022-10-20T03:42:37.641Z,100981.66
2022-10-20T03:45:04.897Z,100978.50
2022-10-20T03:47:31.313Z,100985.91
2022-10-20T03:49:57.806Z,100988.69
2022-10-20T03:52:24.259Z,100975.09
2022-10-20T03:54:50.795Z,100975.09
2022-10-20T03:57:17.231Z,100972.56
2022-10-20T03:59:43.613Z,100981.06
2022-10-20T04:02:21.596Z,100969.16
2022-10-20T04:04:47.994Z,100967.91
2022-10-20T04:07:14.427Z,100962.78
2022-10-20T04:09:40.824Z,100961.97
2022-10-20T04:12:07.194Z,100973.03
2022-10-20T04:14:33.609Z,100956.47
2022-10-20T04:17:00.001Z,100949.84
2022-10-20T04:19:26.397Z,100952.59
2022-10-20T04:21:52.815Z,100942.88
2022-10-20T04:24:19.181Z,100932.66
2022-10-20T04:26:45.661Z,100927.34
2022-10-20T04:29:12.133Z,100929.28
2022-10-20T04:31:38.515Z,100924.84
2022-10-20T04:34:04.893Z,100930.13
2022-10-20T04:36:31.447Z,100925.06
2022-10-20T04:38:57.812Z,100924.38
2022-10-20T04:41:24.197Z,100921.19
2022-10-20T04:43:52.125Z,100922.25
2022-10-20T04:46:19.348Z,100919.47
2022-10-20T04:48:45.859Z,100902.91
2022-10-20T04:51:15.226Z,100902.06
2022-10-20T04:53:41.663Z,100901.47
2022-10-20T04:56:11.436Z,100902.31
2022-10-20T04:58:37.867Z,100907.19
2022-10-20T05:01:09.592Z,100909.94
2022-10-20T05:03:36.857Z,100901.06
2022-10-20T05:06:15.300Z,100907.19
2022-10-20T05:08:43.321Z,100894.47
2022-10-20T05:11:11.042Z,100901.06
2022-10-20T05:13:37.944Z,100900.84
2022-10-20T05:16:05.345Z,100898.91
2022-10-20T05:18:32.703Z,100891.47
2022-10-20T05:21:11.443Z,100902.97
2022-10-20T05:23:39.400Z,100886.47
2022-10-20T05:26:11.885Z,100885.16
2022-10-20T05:28:39.291Z,100885.81
2022-10-20T05:31:08.009Z,100878.63
2022-10-20T05:33:35.739Z,100869.50
2022-10-20T05:36:15.899Z,100866.97
2022-10-20T05:38:44.356Z,100858.06
2022-10-20T05:41:16.546Z,100854.91
2022-10-20T05:43:43.257Z,100862.34
2022-10-20T05:46:09.729Z,100859.34
2022-10-20T05:48:40.689Z,100869.56
2022-10-20T05:51:21.097Z,100862.97
2022-10-20T05:53:47.491Z,100853.00
2022-10-20T05:56:17.088Z,100855.53
2022-10-20T05:58:44.520Z,100853.00
2022-10-20T06:01:20.365Z,100849.16
2022-10-20T06:04:10.691Z,100861.50
2022-10-20T06:06:37.144Z,100876.75
2022-10-20T06:09:07.322Z,100875.91
2022-10-20T06:11:38.357Z,100861.91
2022-10-20T06:14:06.563Z,100875.47
2022-10-20T06:16:33.079Z,100872.09
2022-10-20T06:19:00.048Z,100890.34
2022-10-20T06:21:29.270Z,100889.50
2022-10-20T06:23:57.667Z,100884.81
2022-10-20T06:26:26.757Z,100868.66
2022-10-20T06:28:59.826Z,100865.69
2022-10-20T06:31:32.109Z,100856.31
2022-10-20T06:33:58.872Z,100853.34
2022-10-20T06:36:26.207Z,100846.91
2022-10-20T06:38:59.048Z,100846.47
2022-10-20T06:41:26.941Z,100849.41
2022-10-20T06:43:58.492Z,100848.09
2022-10-20T06:46:27.093Z,100854.47
2022-10-20T06:48:57.893Z,100859.78
2022-10-20T06:51:25.833Z,100862.94
2022-10-20T06:53:52.627Z,100845.50
2022-10-20T06:56:25.573Z,100839.31
2022-10-20T06:58:54.193Z,100850.97
2022-10-20T07:01:32.208Z,100855.19
2022-10-20T07:04:02.214Z,100839.03
2022-10-20T07:06:34.705Z,100856.81
2022-10-20T07:09:03.929Z,100859.56
2022-10-20T07:11:31.673Z,100861.91
2022-10-20T07:13:59.520Z,100848.25
2022-10-20T07:16:28.317Z,100851.63
2022-10-20T07:18:55.578Z,100860.31
2022-10-20T07:21:30.612Z,100851.56
2022-10-20T07:24:01.337Z,100849.19
2022-10-20T07:26:31.148Z,100845.50
2022-10-20T07:28:59.784Z,100834.00
2022-10-20T07:31:32.348Z,100834.84
2022-10-20T07:34:06.892Z,100835.47
2022-10-20T07:36:44.380Z,100847.41
2022-10-20T07:39:12.620Z,100854.03
2022-10-20T07:41:39.732Z,100839.59
2022-10-20T07:44:07.424Z,100841.28
2022-10-20T07:46:33.869Z,100845.50
2022-10-20T07:49:23.923Z,100847.19
2022-10-20T07:51:46.666Z,100823.41
2022-10-20T07:54:13.057Z,100841.66
2022-10-20T07:56:41.715Z,100850.97
2022-10-20T07:59:09.496Z,100848.81
2022-10-20T08:01:36.338Z,100837.28
2022-10-20T08:04:03.003Z,100836.41
2022-10-20T08:06:29.735Z,100839.53
2022-10-20T08:08:56.237Z,100835.00
2022-10-20T08:11:23.287Z,100834.94
2022-10-20T08:13:49.735Z,100829.78
2022-10-20T08:16:23.432Z,100830.16
2022-10-20T08:21:36.087Z,100838.16
2022-10-20T08:24:02.816Z,100834.31
2022-10-20T08:26:29.248Z,100832.78
2022-10-20T08:28:55.784Z,100831.00
2022-10-20T08:31:23.168Z,100838.53
2022-10-20T08:33:52.646Z,100836.09
2022-10-20T08:36:20.691Z,100830.28
2022-10-20T08:38:47.778Z,100823.81
2022-10-20T08:41:24.808Z,100825.41
2022-10-20T08:43:53.963Z,100823.66
2022-10-20T08:46:27.066Z,100818.84
2022-10-20T08:48:53.487Z,100814.53
2022-10-20T08:51:23.541Z,100816.09
2022-10-20T08:53:55.377Z,100822.59
2022-10-20T08:56:25.261Z,100819.59
2022-10-20T08:58:52.100Z,100816.34
2022-10-20T09:01:21.129Z,100811.56
2022-10-20T09:03:56.581Z,100808.34
2022-10-20T09:06:24.204Z,100818.94
2022-10-20T09:08:51.366Z,100817.00
2022-10-20T09:11:23.111Z,100816.28
2022-10-20T09:13:49.802Z,100807.53
2022-10-20T09:16:40.954Z,100816.41
2022-10-20T09:19:21.443Z,100813.66
2022-10-20T09:21:52.390Z,100807.41
2022-10-20T09:24:22.182Z,100803.09
2022-10-20T09:26:59.592Z,100810.66
2022-10-20T09:29:38.318Z,100805.88
2022-10-20T09:32:44.860Z,100805.13
2022-10-20T09:35:24.379Z,100808.53
2022-10-20T09:37:55.089Z,100814.53
2022-10-20T09:40:22.712Z,100813.81
2022-10-20T09:42:53.479Z,100822.72
2022-10-20T09:45:29.353Z,100801.19
2022-10-20T09:48:08.441Z,100802.88
2022-10-20T09:50:40.615Z,100806.25
2022-10-20T09:53:18.538Z,100808.78
2022-10-20T09:55:51.802Z,100799.28
2022-10-20T09:58:30.147Z,100793.13
2022-10-20T10:01:13.094Z,100797.72
2022-10-20T10:03:47.868Z,100800.56
2022-10-20T10:06:20.451Z,100802.03
2022-10-20T10:08:47.450Z,100796.50
2022-10-20T10:11:19.574Z,100794.44
2022-10-20T10:13:51.649Z,100792.88
2022-10-20T10:16:21.315Z,100784.06
2022-10-20T10:18:57.743Z,100775.13
2022-10-20T10:21:24.256Z,100776.25
2022-10-20T10:24:01.428Z,100783.44
2022-10-20T10:26:47.245Z,100784.91
2022-10-20T10:29:28.380Z,100770.78
2022-10-20T10:32:26.222Z,100758.38
2022-10-20T10:35:09.306Z,100756.19
2022-10-20T10:37:38.516Z,100742.91
2022-10-20T10:40:20.214Z,100739.34
2022-10-20T10:43:06.077Z,100736.56
2022-10-20T10:45:52.584Z,100737.03
2022-10-20T10:48:31.145Z,100732.94
2022-10-20T10:51:00.847Z,100731.81
2022-10-20T10:53:38.729Z,100739.91
2022-10-20T10:56:20.440Z,100735.22
2022-10-20T10:58:55.993Z,100736.06
2022-10-20T11:01:28.953Z,100749.66
2022-10-20T11:04:24.035Z,100772.69
2022-10-20T11:07:24.082Z,100777.66
2022-10-20T11:10:24.865Z,100784.97
2022-10-20T11:13:09.986Z,100780.03
2022-10-20T11:15:55.653Z,100771.81
2022-10-20T11:18:24.841Z,100769.38
2022-10-20T11:21:01.208Z,100779.16
2022-10-20T11:23:50.577Z,100773.13
2022-10-20T11:26:33.579Z,100779.88
2022-10-20T11:29:02.883Z,100773.81
2022-10-20T11:31:43.528Z,100775.25
2022-10-20T11:34:22.025Z,100781.63
2022-10-20T11:37:05.673Z,100775.50
2022-10-20T11:40:06.000Z,100758.03
2022-10-20T11:42:59.159Z,100761.03
2022-10-20T11:45:37.238Z,100754.97
2022-10-20T11:48:17.868Z,100753.31
2022-10-20T11:50:56.613Z,100747.78
2022-10-20T11:53:52.111Z,100754.91
2022-10-20T11:56:36.221Z,100755.28
2022-10-20T11:59:36.559Z,100766.97
2022-10-20T12:02:47.563Z,100766.63
2022-10-20T12:05:26.016Z,100758.28
2022-10-20T12:08:30.486Z,100749.75
2022-10-20T12:11:00.357Z,100744.69
2022-10-20T12:13:40.784Z,100722.50
2022-10-20T12:16:07.810Z,100723.59
2022-10-20T12:18:36.432Z,100718.63
2022-10-20T12:21:04.383Z,100717.81
2022-10-20T12:23:43.043Z,100712.25
2022-10-20T12:26:34.076Z,100707.19
2022-10-20T12:29:03.384Z,100714.44
2022-10-20T12:32:07.368Z,100703.09
2022-10-20T12:34:41.180Z,100704.75
2022-10-20T12:37:16.401Z,100708.88
2022-10-20T12:39:44.185Z,100706.94
2022-10-20T12:42:22.117Z,100703.09
2022-10-20T12:44:49.624Z,100690.88
2022-10-20T12:47:27.874Z,100688.72
2022-10-20T12:50:05.007Z,100675.78
2022-10-20T12:52:35.012Z,100678.09
2022-10-20T12:55:18.682Z,100688.41
2022-10-20T12:57:46.411Z,100693.56
2022-10-20T13:00:15.844Z,100694.00
2022-10-20T13:02:50.630Z,100693.88
2022-10-20T13:05:19.986Z,100705.81
2022-10-20T13:07:46.321Z,100711.13
2022-10-20T13:10:33.494Z,100710.00
2022-10-20T13:13:02.957Z,100709.44
2022-10-20T13:15:35.626Z,100705.81
2022-10-20T13:18:03.998Z,100711.69
2022-10-20T13:20:36.627Z,100692.03
2022-10-20T13:23:03.640Z,100690.34
2022-10-20T13:25:38.842Z,100692.63
2022-10-20T13:28:14.473Z,100685.13
2022-10-20T13:31:06.998Z,100685.66
2022-10-20T13:34:04.957Z,100693.34
2022-10-20T13:36:45.032Z,100689.41
2022-10-20T13:39:26.806Z,100677.69
2022-10-20T13:42:24.036Z,100670.97
2022-10-20T13:45:14.650Z,100675.31
2022-10-20T13:47:51.889Z,100676.06
2022-10-20T13:52:48.937Z,100680.53
2022-10-20T13:55:22.293Z,100692.97
2022-10-20T13:57:55.288Z,100702.88
2022-10-20T14:00:24.717Z,100700.63
2022-10-20T14:03:12.490Z,100700.00
2022-10-20T14:05:39.459Z,100679.41
2022-10-20T14:08:15.115Z,100671.59
2022-10-20T14:10:53.409Z,100677.38
2022-10-20T14:13:24.137Z,100683.69
2022-10-20T14:15:54.362Z,100668.13
2022-10-20T14:18:26.118Z,100661.50
2022-10-20T14:21:04.931Z,100673.44
2022-10-20T14:23:36.906Z,100674.75
2022-10-20T14:26:07.303Z,100683.91
2022-10-20T14:28:35.234Z,100676.94
2022-10-20T14:31:02.760Z,100674.69
2022-10-20T14:33:30.591Z,100674.69
2022-10-20T14:35:59.442Z,100671.06
2022-10-20T14:38:37.942Z,100681.31
2022-10-20T14:41:07.450Z,100675.16
2022-10-20T14:43:40.559Z,100659.63
2022-10-20T14:46:12.075Z,100660.13
2022-10-20T14:48:38.457Z,100660.13
2022-10-20T14:51:48.107Z,100653.41
2022-10-20T14:54:20.850Z,100641.47
2022-10-20T14:56:53.052Z,100645.88
2022-10-20T14:59:26.855Z,100650.34
2022-10-20T15:02:09.204Z,100634.56
2022-10-20T15:04:38.272Z,100627.66
2022-10-20T15:07:06.115Z,100634.06
2022-10-20T15:09:42.535Z,100638.28
2022-10-20T15:12:17.775Z,100636.69
2022-10-20T15:14:48.368Z,100639.81
2022-10-20T15:17:50.177Z,100650.41
2022-10-20T15:20:34.665Z,100643.75
2022-10-20T15:23:13.925Z,100643.28
2022-10-20T15:25:55.821Z,100645.53
2022-10-20T15:28:47.390Z,100636.22
2022-10-20T15:31:13.716Z,100635.13
2022-10-20T15:33:40.996Z,100634.63
2022-10-20T15:36:16.074Z,100632.47
2022-10-20T15:38:43.461Z,100631.09
2022-10-20T15:41:17.914Z,100621.94
2022-10-20T15:43:44.350Z,100626.41
2022-10-20T15:46:15.475Z,100618.31
2022-10-20T15:48:43.027Z,100606.38
2022-10-20T15:51:15.322Z,100609.75
2022-10-20T15:53:41.709Z,100610.59
2022-10-20T15:56:08.191Z,100622.50
2022-10-20T15:58:38.885Z,100628.22
2022-10-20T16:01:07.720Z,100620.41
2022-10-20T16:03:35.693Z,100614.34
2022-10-20T16:06:02.063Z,100609.09
2022-10-20T16:08:28.588Z,100605.72
2022-10-20T16:10:56.117Z,100601.50
2022-10-20T16:13:22.503Z,100598.41
2022-10-20T16:15:48.940Z,100605.03
2022-10-20T16:18:15.369Z,100616.13
2022-10-20T16:20:41.752Z,100606.38
2022-10-20T16:23:08.249Z,100601.69
2022-10-20T16:25:34.734Z,100585.50
2022-10-20T16:28:01.177Z,100594.34
2022-10-20T16:30:28.832Z,100610.41
2022-10-20T16:32:55.981Z,100598.13
2022-10-20T16:35:22.602Z,100594.28
2022-10-20T16:37:48.993Z,100595.09
2022-10-20T16:40:15.392Z,100596.19
2022-10-20T16:42:41.934Z,100599.47
2022-10-20T16:45:09.292Z,100604.16
2022-10-20T16:47:35.975Z,100610.47
2022-10-20T16:50:02.895Z,100600.44
2022-10-20T16:52:29.302Z,100596.84
2022-10-20T16:54:55.740Z,100588.78
2022-10-20T16:57:22.121Z,100581.78
2022-10-20T16:59:51.212Z,100580.63
2022-10-20T17:02:19.178Z,100589.19
2022-10-20T17:04:49.667Z,100596.06
2022-10-20T17:07:16.945Z,100589.91
2022-10-20T17:09:43.567Z,100594.63
2022-10-20T17:12:10.001Z,100589.06
2022-10-20T17:14:36.436Z,100590.19
2022-10-20T17:17:02.872Z,100582.69
2022-10-20T17:19:29.381Z,100578.84
2022-10-20T17:21:56.368Z,100575.47
2022-10-20T17:24:24.357Z,100577.41
2022-10-20T17:26:50.847Z,100568.84
2022-10-20T17:29:18.579Z,100567.16
2022-10-20T17:31:46.644Z,100556.09
2022-10-20T17:34:13.194Z,100574.38
2022-10-20T17:36:39.633Z,100553.88
2022-10-20T17:39:08.554Z,100564.47
2022-10-20T17:41:35.954Z,100577.25
2022-10-20T17:44:04.611Z,100574.47
2022-10-20T17:46:31.048Z,100570.63
2022-10-20T17:48:57.458Z,100571.47
2022-10-20T17:51:27.864Z,100581.44
2022-10-20T17:53:58.069Z,100569.88
2022-10-20T17:56:31.342Z,100566.34
2022-10-20T17:58:59.665Z,100572.50
2022-10-20T18:01:32.229Z,100566.69
2022-10-20T18:04:01.160Z,100581.38
2022-10-20T18:06:33.789Z,100579.22
2022-10-20T18:09:04.219Z,100581.72
2022-10-20T18:11:32.212Z,100576.44
2022-10-20T18:13:59.943Z,100562.31
2022-10-20T18:16:28.822Z,100564.84
2022-10-20T18:21:30.397Z,100574.25
2022-10-20T18:23:59.050Z,100568.19
2022-10-20T18:26:25.597Z,100565.69
2022-10-20T18:28:52.395Z,100574.84
2022-10-20T18:31:24.125Z,100575.69
2022-10-20T18:33:56.291Z,100576.53
2022-10-20T18:36:24.018Z,100572.44
2022-10-20T18:38:50.447Z,100574.94
2022-10-20T18:41:22.385Z,100558.91
2022-10-20T18:44:00.772Z,100559.13
2022-10-20T18:46:29.144Z,100558.28
2022-10-20T18:48:56.374Z,100550.47
2022-10-20T18:51:23.218Z,100554.34
2022-10-20T18:53:53.663Z,100551.56
2022-10-20T18:56:21.954Z,100553.50
2022-10-20T18:59:00.708Z,100558.81
2022-10-20T19:01:30.041Z,100566.53
2022-10-20T19:03:57.978Z,100549.31
2022-10-20T19:06:29.920Z,100543.50
2022-10-20T19:09:01.730Z,100555.44
2022-10-20T19:11:30.629Z,100556.78
2022-10-20T19:13:57.974Z,100547.72
2022-10-20T19:16:27.484Z,100529.16
2022-10-20T19:18:55.697Z,100516.63
2022-10-20T19:21:24.114Z,100511.09
2022-10-20T19:24:02.381Z,100511.66
2022-10-20T19:26:31.660Z,100514.44
2022-10-20T19:29:02.000Z,100511.31
2022-10-20T19:31:30.439Z,100516.63
2022-10-20T19:34:01.330Z,100514.44
2022-10-20T19:36:29.073Z,100514.44
2022-10-20T19:38:56.105Z,100502.00
2022-10-20T19:41:22.778Z,100493.66
2022-10-20T19:43:49.791Z,100475.63
2022-10-20T19:46:18.807Z,100457.91
2022-10-20T19:48:46.594Z,100472.59
2022-10-20T19:51:14.653Z,100455.63
2022-10-20T19:53:41.100Z,100453.94
2022-10-20T19:56:08.740Z,100462.84
2022-10-20T19:58:38.488Z,100448.41
2022-10-20T20:01:07.748Z,100456.13
2022-10-20T20:03:35.007Z,100453.34
2022-10-20T20:06:07.634Z,100434.28
2022-10-20T20:08:34.402Z,100419.59
2022-10-20T20:11:02.854Z,100424.03
2022-10-20T20:13:29.554Z,100422.94
2022-10-20T20:15:55.982Z,100432.44
2022-10-20T20:18:22.399Z,100420.25
2022-10-20T20:20:49.309Z,100424.69
2022-10-20T20:23:16.302Z,100436.38
2022-10-20T20:25:44.924Z,100435.63
2022-10-20T20:28:12.014Z,100432.34
2022-10-20T20:30:38.539Z,100434.59
2022-10-20T20:33:05.010Z,100439.63
2022-10-20T20:35:31.465Z,100440.47
2022-10-20T20:37:57.831Z,100450.72
2022-10-20T20:40:24.229Z,100442.66
2022-10-20T20:42:50.599Z,100433.22
2022-10-20T20:45:17.135Z,100436.28
2022-10-20T20:47:46.592Z,100424.34
2022-10-20T20:50:13.046Z,100423.16
2022-10-20T20:52:39.517Z,100428.38
2022-10-20T20:55:06.082Z,100427.53
2022-10-20T20:57:32.460Z,100430.91
2022-10-20T20:59:58.886Z,100423.69
2022-10-20T21:02:25.272Z,100429.47
2022-10-20T21:04:51.650Z,100422.50
2022-10-20T21:07:18.077Z,100431.34
2022-10-20T21:09:44.430Z,100430.22
2022-10-20T21:14:42.123Z,100431.91
2022-10-20T21:17:08.522Z,100444.69
2022-10-20T21:19:35.705Z,100433.59
2022-10-20T21:22:02.075Z,100426.97
2022-10-20T21:24:28.549Z,100428.63
2022-10-20T21:26:55.083Z,100431.41
2022-10-20T21:29:21.628Z,100440.84
2022-10-20T21:31:48.032Z,100444.69
2022-10-20T21:34:14.592Z,100447.78
2022-10-20T21:36:41.075Z,100445.03
2022-10-20T21:39:12.078Z,100452.59
2022-10-20T21:41:38.797Z,100453.16
2022-10-20T21:44:07.016Z,100453.75
2022-10-20T21:46:35.877Z,100457.72
2022-10-20T21:49:12.385Z,100462.97
2022-10-20T21:51:41.848Z,100463.81
2022-10-20T21:54:12.668Z,100460.53
2022-10-20T21:56:41.373Z,100450.28
2022-10-20T21:59:13.975Z,100445.59
2022-10-20T22:01:41.467Z,100434.72
2022-10-20T22:04:07.882Z,100424.47
2022-10-20T22:06:37.082Z,100418.69
2022-10-20T22:09:03.652Z,100433.88
2022-10-20T22:11:33.635Z,100448.34
2022-10-20T22:14:00.579Z,100436.41
2022-10-20T22:16:31.441Z,100441.13
2022-10-20T22:19:22.129Z,100447.50
2022-10-20T22:21:50.384Z,100460.03
2022-10-20T22:24:18.675Z,100469.94
2022-10-20T22:26:45.819Z,100478.78
2022-10-20T22:29:12.435Z,100477.69
2022-10-20T22:31:40.250Z,100485.50
2022-10-20T22:34:07.425Z,100476.94
2022-10-20T22:36:34.348Z,100488.88
2022-10-20T22:39:01.474Z,100488.38
2022-10-20T22:41:28.030Z,100483.38
2022-10-20T22:43:55.445Z,100488.69
2022-10-20T22:46:21.920Z,100483.13
2022-10-20T22:48:48.391Z,100487.84
2022-10-20T22:51:15.889Z,100475.66
2022-10-20T22:53:42.868Z,100461.78
2022-10-20T22:56:21.253Z,100461.78
2022-10-20T22:58:47.856Z,100450.69
2022-10-20T23:01:20.200Z,100452.94
2022-10-20T23:03:47.137Z,100459.84
2022-10-20T23:06:16.286Z,100462.34
2022-10-20T23:08:45.805Z,100466.81
2022-10-20T23:11:13.361Z,100472.38
2022-10-20T23:13:40.042Z,100480.09
2022-10-20T23:16:07.064Z,100480.69
2022-10-20T23:18:33.939Z,100479.00
2022-10-20T23:21:00.366Z,100449.34
2022-10-20T23:23:27.020Z,100460.44
2022-10-20T23:25:53.536Z,100470.34
2022-10-20T23:28:20.547Z,100463.72
2022-10-20T23:30:47.446Z,100459.53
2022-10-20T23:33:13.836Z,100458.41
2022-10-20T23:35:40.757Z,100448.44
2022-10-20T23:38:09.310Z,100443.22
2022-10-20T23:40:36.287Z,100441.53
2022-10-20T23:43:02.778Z,100434.63
2022-10-20T23:45:30.925Z,100433.53
2022-10-20T23:48:00.474Z,100435.22
2022-10-20T23:50:26.936Z,100420.84
2022-10-20T23:52:53.337Z,100405.50
2022-10-20T23:55:19.936Z,100402.72
2022-10-20T23:57:46.348Z,100390.34
